sensor_id;sensor_type;location;lat;lon;timestamp;P1;durP1;ratioP1;P2;durP2;ratioP2
20340;SDS011;10328;50.042;8.238;2022-07-10T00:02:16;4.30;;;2.53;;
20340;SDS011;10328;50.042;8.238;2022-07-10T00:04:43;3.87;;;2.40;;
20340;SDS011;10328;50.042;8.238;2022-07-10T00:07:10;3.73;;;2.60;;
20340;SDS011;10328;50.042;8.238;2022-07-10T00:09:36;5.60;;;2.27;;
20340;SDS011;10328;50.042;8.238;2022-07-10T00:12:03;4.00;;;2.37;;
20340;SDS011;10328;50.042;8.238;2022-07-10T00:14:31;3.00;;;2.20;;
20340;SDS011;10328;50.042;8.238;2022-07-10T00:16:58;6.73;;;2.60;;
20340;SDS011;10328;50.042;8.238;2022-07-10T00:19:24;3.60;;;2.13;;
20340;SDS011;10328;50.042;8.238;2022-07-10T00:21:51;4.03;;;2.20;;
20340;SDS011;10328;50.042;8.238;2022-07-10T00:24:18;5.17;;;2.73;;
20340;SDS011;10328;50.042;8.238;2022-07-10T00:26:44;4.10;;;2.40;;
20340;SDS011;10328;50.042;8.238;2022-07-10T00:29:12;4.83;;;2.47;;
20340;SDS011;10328;50.042;8.238;2022-07-10T00:31:39;5.37;;;2.40;;
20340;SDS011;10328;50.042;8.238;2022-07-10T00:34:06;4.43;;;2.40;;
20340;SDS011;10328;50.042;8.238;2022-07-10T00:36:33;5.80;;;2.30;;
20340;SDS011;10328;50.042;8.238;2022-07-10T00:38:59;3.90;;;2.60;;
20340;SDS011;10328;50.042;8.238;2022-07-10T00:41:26;6.53;;;2.30;;
20340;SDS011;10328;50.042;8.238;2022-07-10T00:43:59;6.50;;;2.40;;
20340;SDS011;10328;50.042;8.238;2022-07-10T00:46:27;5.23;;;2.17;;
20340;SDS011;10328;50.042;8.238;2022-07-10T00:48:55;4.07;;;2.37;;
20340;SDS011;10328;50.042;8.238;2022-07-10T00:51:26;3.53;;;2.13;;
20340;SDS011;10328;50.042;8.238;2022-07-10T00:53:54;6.57;;;2.17;;
20340;SDS011;10328;50.042;8.238;2022-07-10T00:56:23;4.30;;;2.17;;
20340;SDS011;10328;50.042;8.238;2022-07-10T00:58:50;5.47;;;2.30;;
20340;SDS011;10328;50.042;8.238;2022-07-10T01:01:17;4.03;;;2.50;;
20340;SDS011;10328;50.042;8.238;2022-07-10T01:03:45;2.93;;;2.30;;
20340;SDS011;10328;50.042;8.238;2022-07-10T01:06:13;4.40;;;2.37;;
20340;SDS011;10328;50.042;8.238;2022-07-10T01:08:41;5.43;;;2.40;;
20340;SDS011;10328;50.042;8.238;2022-07-10T01:11:09;4.67;;;2.30;;
20340;SDS011;10328;50.042;8.238;2022-07-10T01:13:36;6.70;;;2.43;;
20340;SDS011;10328;50.042;8.238;2022-07-10T01:16:03;5.13;;;2.27;;
20340;SDS011;10328;50.042;8.238;2022-07-10T01:18:30;3.57;;;2.03;;
20340;SDS011;10328;50.042;8.238;2022-07-10T01:20:57;4.67;;;2.40;;
20340;SDS011;10328;50.042;8.238;2022-07-10T01:23:24;3.67;;;2.30;;
20340;SDS011;10328;50.042;8.238;2022-07-10T01:25:50;3.37;;;2.33;;
20340;SDS011;10328;50.042;8.238;2022-07-10T01:28:17;5.53;;;2.70;;
20340;SDS011;10328;50.042;8.238;2022-07-10T01:30:45;3.50;;;2.17;;
20340;SDS011;10328;50.042;8.238;2022-07-10T01:33:12;7.20;;;2.33;;
20340;SDS011;10328;50.042;8.238;2022-07-10T01:35:39;5.60;;;2.27;;
20340;SDS011;10328;50.042;8.238;2022-07-10T01:38:06;3.60;;;1.93;;
20340;SDS011;10328;50.042;8.238;2022-07-10T01:40:33;3.37;;;2.30;;
20340;SDS011;10328;50.042;8.238;2022-07-10T01:43:00;6.27;;;2.30;;
20340;SDS011;10328;50.042;8.238;2022-07-10T01:45:26;6.07;;;2.53;;
20340;SDS011;10328;50.042;8.238;2022-07-10T01:47:53;5.90;;;2.37;;
20340;SDS011;10328;50.042;8.238;2022-07-10T01:50:20;3.37;;;2.47;;
20340;SDS011;10328;50.042;8.238;2022-07-10T01:52:46;3.27;;;2.03;;
20340;SDS011;10328;50.042;8.238;2022-07-10T01:55:13;4.17;;;2.07;;
20340;SDS011;10328;50.042;8.238;2022-07-10T01:57:39;6.70;;;2.37;;
20340;SDS011;10328;50.042;8.238;2022-07-10T02:00:06;3.10;;;2.03;;
20340;SDS011;10328;50.042;8.238;2022-07-10T02:02:34;4.30;;;2.10;;
20340;SDS011;10328;50.042;8.238;2022-07-10T02:05:01;4.30;;;2.50;;
20340;SDS011;10328;50.042;8.238;2022-07-10T02:07:27;4.07;;;2.13;;
20340;SDS011;10328;50.042;8.238;2022-07-10T02:09:54;4.37;;;2.57;;
20340;SDS011;10328;50.042;8.238;2022-07-10T02:12:20;3.63;;;1.90;;
20340;SDS011;10328;50.042;8.238;2022-07-10T02:14:47;3.90;;;1.93;;
20340;SDS011;10328;50.042;8.238;2022-07-10T02:17:14;6.53;;;2.47;;
20340;SDS011;10328;50.042;8.238;2022-07-10T02:19:42;2.70;;;2.10;;
20340;SDS011;10328;50.042;8.238;2022-07-10T02:22:08;2.63;;;1.83;;
20340;SDS011;10328;50.042;8.238;2022-07-10T02:24:35;3.33;;;2.10;;
20340;SDS011;10328;50.042;8.238;2022-07-10T02:27:02;3.50;;;2.27;;
20340;SDS011;10328;50.042;8.238;2022-07-10T02:29:29;4.10;;;1.90;;
20340;SDS011;10328;50.042;8.238;2022-07-10T02:31:55;5.40;;;2.03;;
20340;SDS011;10328;50.042;8.238;2022-07-10T02:34:22;6.57;;;2.00;;
20340;SDS011;10328;50.042;8.238;2022-07-10T02:36:49;4.63;;;2.10;;
20340;SDS011;10328;50.042;8.238;2022-07-10T02:39:16;3.90;;;1.90;;
20340;SDS011;10328;50.042;8.238;2022-07-10T02:41:45;5.23;;;2.00;;
20340;SDS011;10328;50.042;8.238;2022-07-10T02:44:11;6.57;;;2.30;;
20340;SDS011;10328;50.042;8.238;2022-07-10T02:46:38;5.43;;;1.90;;
20340;SDS011;10328;50.042;8.238;2022-07-10T02:49:05;3.70;;;1.87;;
20340;SDS011;10328;50.042;8.238;2022-07-10T02:51:31;4.10;;;2.07;;
20340;SDS011;10328;50.042;8.238;2022-07-10T02:53:58;2.53;;;1.97;;
20340;SDS011;10328;50.042;8.238;2022-07-10T02:56:25;5.30;;;1.93;;
20340;SDS011;10328;50.042;8.238;2022-07-10T02:58:52;4.60;;;2.00;;
20340;SDS011;10328;50.042;8.238;2022-07-10T03:01:18;5.40;;;2.30;;
20340;SDS011;10328;50.042;8.238;2022-07-10T03:03:45;4.63;;;2.00;;
20340;SDS011;10328;50.042;8.238;2022-07-10T03:06:12;2.83;;;2.10;;
20340;SDS011;10328;50.042;8.238;2022-07-10T03:08:38;3.60;;;1.93;;
20340;SDS011;10328;50.042;8.238;2022-07-10T03:11:06;6.70;;;2.03;;
20340;SDS011;10328;50.042;8.238;2022-07-10T03:13:33;4.67;;;2.00;;
20340;SDS011;10328;50.042;8.238;2022-07-10T03:15:59;11.07;;;2.17;;
20340;SDS011;10328;50.042;8.238;2022-07-10T03:18:26;5.10;;;2.53;;
20340;SDS011;10328;50.042;8.238;2022-07-10T03:20:53;5.57;;;2.10;;
20340;SDS011;10328;50.042;8.238;2022-07-10T03:23:20;2.60;;;1.90;;
20340;SDS011;10328;50.042;8.238;2022-07-10T03:25:47;4.53;;;1.90;;
20340;SDS011;10328;50.042;8.238;2022-07-10T03:28:14;3.57;;;2.00;;
20340;SDS011;10328;50.042;8.238;2022-07-10T03:30:41;4.63;;;2.17;;
20340;SDS011;10328;50.042;8.238;2022-07-10T03:33:07;5.60;;;1.83;;
20340;SDS011;10328;50.042;8.238;2022-07-10T03:35:34;2.70;;;1.90;;
20340;SDS011;10328;50.042;8.238;2022-07-10T03:38:00;3.67;;;1.77;;
20340;SDS011;10328;50.042;8.238;2022-07-10T03:40:28;3.87;;;2.03;;
20340;SDS011;10328;50.042;8.238;2022-07-10T03:42:55;5.73;;;2.30;;
20340;SDS011;10328;50.042;8.238;2022-07-10T03:45:21;4.77;;;2.03;;
20340;SDS011;10328;50.042;8.238;2022-07-10T03:47:48;3.77;;;1.80;;
20340;SDS011;10328;50.042;8.238;2022-07-10T03:50:15;2.90;;;2.00;;
20340;SDS011;10328;50.042;8.238;2022-07-10T03:52:41;5.10;;;2.07;;
20340;SDS011;10328;50.042;8.238;2022-07-10T03:55:10;5.30;;;2.00;;
20340;SDS011;10328;50.042;8.238;2022-07-10T03:57:36;5.40;;;1.80;;
20340;SDS011;10328;50.042;8.238;2022-07-10T04:00:23;4.07;;;2.00;;
20340;SDS011;10328;50.042;8.238;2022-07-10T04:02:57;3.93;;;1.83;;
20340;SDS011;10328;50.042;8.238;2022-07-10T04:05:25;5.37;;;2.10;;
20340;SDS011;10328;50.042;8.238;2022-07-10T04:07:53;4.43;;;1.87;;
20340;SDS011;10328;50.042;8.238;2022-07-10T04:10:20;4.40;;;2.67;;
20340;SDS011;10328;50.042;8.238;2022-07-10T04:12:47;5.47;;;1.83;;
20340;SDS011;10328;50.042;8.238;2022-07-10T04:15:14;4.03;;;2.27;;
20340;SDS011;10328;50.042;8.238;2022-07-10T04:17:42;3.87;;;1.90;;
20340;SDS011;10328;50.042;8.238;2022-07-10T04:20:09;4.47;;;2.03;;
20340;SDS011;10328;50.042;8.238;2022-07-10T04:22:36;5.50;;;2.00;;
20340;SDS011;10328;50.042;8.238;2022-07-10T04:25:03;2.93;;;1.90;;
20340;SDS011;10328;50.042;8.238;2022-07-10T04:27:31;4.70;;;1.70;;
20340;SDS011;10328;50.042;8.238;2022-07-10T04:29:58;5.27;;;1.63;;
20340;SDS011;10328;50.042;8.238;2022-07-10T04:32:25;5.00;;;1.50;;
20340;SDS011;10328;50.042;8.238;2022-07-10T04:34:54;7.57;;;2.00;;
20340;SDS011;10328;50.042;8.238;2022-07-10T04:37:21;5.00;;;1.70;;
20340;SDS011;10328;50.042;8.238;2022-07-10T04:39:48;5.30;;;1.60;;
20340;SDS011;10328;50.042;8.238;2022-07-10T04:42:14;3.10;;;1.53;;
20340;SDS011;10328;50.042;8.238;2022-07-10T04:44:42;4.60;;;1.80;;
20340;SDS011;10328;50.042;8.238;2022-07-10T04:47:09;2.60;;;1.50;;
20340;SDS011;10328;50.042;8.238;2022-07-10T04:49:35;5.87;;;1.70;;
20340;SDS011;10328;50.042;8.238;2022-07-10T04:52:02;4.70;;;1.80;;
20340;SDS011;10328;50.042;8.238;2022-07-10T04:54:29;2.93;;;1.40;;
20340;SDS011;10328;50.042;8.238;2022-07-10T04:56:56;3.83;;;1.70;;
20340;SDS011;10328;50.042;8.238;2022-07-10T04:59:23;4.90;;;1.70;;
20340;SDS011;10328;50.042;8.238;2022-07-10T05:01:49;3.33;;;1.50;;
20340;SDS011;10328;50.042;8.238;2022-07-10T05:04:16;5.40;;;1.70;;
20340;SDS011;10328;50.042;8.238;2022-07-10T05:06:43;3.50;;;1.50;;
20340;SDS011;10328;50.042;8.238;2022-07-10T05:09:09;3.57;;;1.50;;
20340;SDS011;10328;50.042;8.238;2022-07-10T05:11:36;5.03;;;1.60;;
20340;SDS011;10328;50.042;8.238;2022-07-10T05:14:03;4.53;;;1.47;;
20340;SDS011;10328;50.042;8.238;2022-07-10T05:16:29;2.27;;;1.50;;
20340;SDS011;10328;50.042;8.238;2022-07-10T05:18:56;3.37;;;1.60;;
20340;SDS011;10328;50.042;8.238;2022-07-10T05:21:23;2.63;;;1.40;;
20340;SDS011;10328;50.042;8.238;2022-07-10T05:23:51;2.90;;;1.20;;
20340;SDS011;10328;50.042;8.238;2022-07-10T05:26:18;4.13;;;1.50;;
20340;SDS011;10328;50.042;8.238;2022-07-10T05:28:45;5.13;;;1.20;;
20340;SDS011;10328;50.042;8.238;2022-07-10T05:31:11;3.90;;;1.50;;
20340;SDS011;10328;50.042;8.238;2022-07-10T05:33:38;2.80;;;1.40;;
20340;SDS011;10328;50.042;8.238;2022-07-10T05:36:07;3.07;;;1.43;;
20340;SDS011;10328;50.042;8.238;2022-07-10T05:38:34;3.10;;;1.50;;
20340;SDS011;10328;50.042;8.238;2022-07-10T05:41:01;2.40;;;1.30;;
20340;SDS011;10328;50.042;8.238;2022-07-10T05:43:28;2.30;;;1.30;;
20340;SDS011;10328;50.042;8.238;2022-07-10T05:45:54;2.93;;;1.50;;
20340;SDS011;10328;50.042;8.238;2022-07-10T05:48:24;4.60;;;1.37;;
20340;SDS011;10328;50.042;8.238;2022-07-10T05:50:51;3.50;;;1.37;;
20340;SDS011;10328;50.042;8.238;2022-07-10T05:53:18;2.70;;;1.40;;
20340;SDS011;10328;50.042;8.238;2022-07-10T05:55:48;2.87;;;1.20;;
20340;SDS011;10328;50.042;8.238;2022-07-10T05:58:15;2.50;;;1.20;;
20340;SDS011;10328;50.042;8.238;2022-07-10T06:00:42;3.90;;;1.40;;
20340;SDS011;10328;50.042;8.238;2022-07-10T06:03:10;3.20;;;1.20;;
20340;SDS011;10328;50.042;8.238;2022-07-10T06:05:37;4.30;;;1.30;;
20340;SDS011;10328;50.042;8.238;2022-07-10T06:08:04;4.47;;;1.40;;
20340;SDS011;10328;50.042;8.238;2022-07-10T06:10:30;2.60;;;1.00;;
20340;SDS011;10328;50.042;8.238;2022-07-10T06:12:57;5.20;;;1.20;;
20340;SDS011;10328;50.042;8.238;2022-07-10T06:15:24;3.63;;;1.47;;
20340;SDS011;10328;50.042;8.238;2022-07-10T06:17:50;1.90;;;1.20;;
20340;SDS011;10328;50.042;8.238;2022-07-10T06:20:17;2.27;;;1.10;;
20340;SDS011;10328;50.042;8.238;2022-07-10T06:22:44;6.23;;;1.00;;
20340;SDS011;10328;50.042;8.238;2022-07-10T06:25:10;8.07;;;1.37;;
20340;SDS011;10328;50.042;8.238;2022-07-10T06:27:38;2.87;;;0.90;;
20340;SDS011;10328;50.042;8.238;2022-07-10T06:30:04;3.17;;;0.80;;
20340;SDS011;10328;50.042;8.238;2022-07-10T06:32:32;1.57;;;0.90;;
20340;SDS011;10328;50.042;8.238;2022-07-10T06:34:58;2.50;;;1.00;;
20340;SDS011;10328;50.042;8.238;2022-07-10T06:37:25;4.37;;;0.90;;
20340;SDS011;10328;50.042;8.238;2022-07-10T06:39:52;2.83;;;0.93;;
20340;SDS011;10328;50.042;8.238;2022-07-10T06:42:18;3.37;;;0.80;;
20340;SDS011;10328;50.042;8.238;2022-07-10T06:44:45;3.90;;;1.03;;
20340;SDS011;10328;50.042;8.238;2022-07-10T06:47:12;4.47;;;1.20;;
20340;SDS011;10328;50.042;8.238;2022-07-10T06:49:59;2.30;;;0.77;;
20340;SDS011;10328;50.042;8.238;2022-07-10T06:52:27;3.17;;;0.83;;
20340;SDS011;10328;50.042;8.238;2022-07-10T06:54:54;2.13;;;0.90;;
20340;SDS011;10328;50.042;8.238;2022-07-10T06:57:21;2.37;;;0.67;;
20340;SDS011;10328;50.042;8.238;2022-07-10T06:59:47;2.97;;;0.83;;
20340;SDS011;10328;50.042;8.238;2022-07-10T07:02:14;4.00;;;0.83;;
20340;SDS011;10328;50.042;8.238;2022-07-10T07:04:41;3.30;;;0.87;;
20340;SDS011;10328;50.042;8.238;2022-07-10T07:07:08;4.00;;;0.83;;
20340;SDS011;10328;50.042;8.238;2022-07-10T07:09:35;3.93;;;1.13;;
20340;SDS011;10328;50.042;8.238;2022-07-10T07:12:01;2.33;;;0.80;;
20340;SDS011;10328;50.042;8.238;2022-07-10T07:14:29;2.43;;;0.80;;
20340;SDS011;10328;50.042;8.238;2022-07-10T07:17:00;1.57;;;0.70;;
20340;SDS011;10328;50.042;8.238;2022-07-10T07:19:32;1.87;;;0.70;;
20340;SDS011;10328;50.042;8.238;2022-07-10T07:22:21;1.67;;;0.80;;
20340;SDS011;10328;50.042;8.238;2022-07-10T07:25:18;2.73;;;0.70;;
20340;SDS011;10328;50.042;8.238;2022-07-10T07:27:45;1.10;;;0.80;;
20340;SDS011;10328;50.042;8.238;2022-07-10T07:30:12;2.80;;;0.80;;
20340;SDS011;10328;50.042;8.238;2022-07-10T07:32:41;3.27;;;0.60;;
20340;SDS011;10328;50.042;8.238;2022-07-10T07:35:09;1.33;;;0.60;;
20340;SDS011;10328;50.042;8.238;2022-07-10T07:37:40;1.33;;;0.60;;
20340;SDS011;10328;50.042;8.238;2022-07-10T07:40:12;2.47;;;0.70;;
20340;SDS011;10328;50.042;8.238;2022-07-10T07:42:40;4.20;;;0.83;;
20340;SDS011;10328;50.042;8.238;2022-07-10T07:45:07;2.00;;;0.87;;
20340;SDS011;10328;50.042;8.238;2022-07-10T07:47:47;2.57;;;1.00;;
20340;SDS011;10328;50.042;8.238;2022-07-10T07:50:18;2.50;;;0.83;;
20340;SDS011;10328;50.042;8.238;2022-07-10T07:52:46;2.17;;;0.60;;
20340;SDS011;10328;50.042;8.238;2022-07-10T07:55:15;1.30;;;0.57;;
20340;SDS011;10328;50.042;8.238;2022-07-10T07:57:43;1.60;;;0.77;;
20340;SDS011;10328;50.042;8.238;2022-07-10T08:00:11;1.57;;;0.70;;
20340;SDS011;10328;50.042;8.238;2022-07-10T08:02:39;1.57;;;0.70;;
20340;SDS011;10328;50.042;8.238;2022-07-10T08:05:06;2.50;;;0.77;;
20340;SDS011;10328;50.042;8.238;2022-07-10T08:07:34;2.80;;;0.80;;
20340;SDS011;10328;50.042;8.238;2022-07-10T08:10:08;3.53;;;0.77;;
20340;SDS011;10328;50.042;8.238;2022-07-10T08:12:36;3.23;;;0.90;;
20340;SDS011;10328;50.042;8.238;2022-07-10T08:15:03;2.67;;;1.03;;
20340;SDS011;10328;50.042;8.238;2022-07-10T08:17:29;2.77;;;0.90;;
20340;SDS011;10328;50.042;8.238;2022-07-10T08:19:56;2.50;;;0.90;;
20340;SDS011;10328;50.042;8.238;2022-07-10T08:22:23;4.40;;;0.97;;
20340;SDS011;10328;50.042;8.238;2022-07-10T08:24:50;4.13;;;0.93;;
20340;SDS011;10328;50.042;8.238;2022-07-10T08:27:16;4.50;;;0.80;;
20340;SDS011;10328;50.042;8.238;2022-07-10T08:29:43;4.43;;;0.90;;
20340;SDS011;10328;50.042;8.238;2022-07-10T08:32:10;3.33;;;1.13;;
20340;SDS011;10328;50.042;8.238;2022-07-10T08:34:36;2.40;;;0.90;;
20340;SDS011;10328;50.042;8.238;2022-07-10T08:37:03;3.50;;;1.20;;
20340;SDS011;10328;50.042;8.238;2022-07-10T08:39:30;2.03;;;1.00;;
20340;SDS011;10328;50.042;8.238;2022-07-10T08:41:58;2.13;;;0.80;;
20340;SDS011;10328;50.042;8.238;2022-07-10T08:44:25;2.30;;;1.00;;
20340;SDS011;10328;50.042;8.238;2022-07-10T08:46:52;3.37;;;1.13;;
20340;SDS011;10328;50.042;8.238;2022-07-10T08:49:19;2.47;;;1.03;;
20340;SDS011;10328;50.042;8.238;2022-07-10T08:54:27;3.77;;;1.10;;
20340;SDS011;10328;50.042;8.238;2022-07-10T08:56:56;1.23;;;1.00;;
20340;SDS011;10328;50.042;8.238;2022-07-10T08:59:23;3.13;;;1.13;;
20340;SDS011;10328;50.042;8.238;2022-07-10T09:01:56;1.97;;;0.90;;
20340;SDS011;10328;50.042;8.238;2022-07-10T09:04:25;6.30;;;1.40;;
20340;SDS011;10328;50.042;8.238;2022-07-10T09:06:53;4.90;;;1.30;;
20340;SDS011;10328;50.042;8.238;2022-07-10T09:09:20;3.67;;;1.27;;
20340;SDS011;10328;50.042;8.238;2022-07-10T09:11:47;3.70;;;1.23;;
20340;SDS011;10328;50.042;8.238;2022-07-10T09:14:14;2.50;;;1.13;;
20340;SDS011;10328;50.042;8.238;2022-07-10T09:16:58;3.00;;;1.10;;
20340;SDS011;10328;50.042;8.238;2022-07-10T09:19:26;2.57;;;1.30;;
20340;SDS011;10328;50.042;8.238;2022-07-10T09:21:55;2.77;;;0.90;;
20340;SDS011;10328;50.042;8.238;2022-07-10T09:24:34;1.67;;;0.80;;
20340;SDS011;10328;50.042;8.238;2022-07-10T09:27:05;2.83;;;0.90;;
20340;SDS011;10328;50.042;8.238;2022-07-10T09:29:34;1.90;;;0.90;;
20340;SDS011;10328;50.042;8.238;2022-07-10T09:32:12;5.10;;;1.20;;
20340;SDS011;10328;50.042;8.238;2022-07-10T09:34:43;4.60;;;1.10;;
20340;SDS011;10328;50.042;8.238;2022-07-10T09:37:29;2.50;;;1.13;;
20340;SDS011;10328;50.042;8.238;2022-07-10T09:39:57;2.80;;;0.90;;
20340;SDS011;10328;50.042;8.238;2022-07-10T09:50:33;3.17;;;1.07;;
20340;SDS011;10328;50.042;8.238;2022-07-10T09:53:02;3.73;;;1.30;;
20340;SDS011;10328;50.042;8.238;2022-07-10T09:55:34;3.60;;;1.10;;
20340;SDS011;10328;50.042;8.238;2022-07-10T09:58:02;3.37;;;1.20;;
20340;SDS011;10328;50.042;8.238;2022-07-10T10:00:31;2.03;;;1.10;;
20340;SDS011;10328;50.042;8.238;2022-07-10T10:02:59;3.87;;;1.30;;
20340;SDS011;10328;50.042;8.238;2022-07-10T10:05:44;3.27;;;1.17;;
20340;SDS011;10328;50.042;8.238;2022-07-10T10:11:25;4.83;;;1.13;;
20340;SDS011;10328;50.042;8.238;2022-07-10T10:13:53;2.35;;;1.33;;
20340;SDS011;10328;50.042;8.238;2022-07-10T10:16:20;3.58;;;1.17;;
20340;SDS011;10328;50.042;8.238;2022-07-10T10:18:48;4.00;;;1.10;;
20340;SDS011;10328;50.042;8.238;2022-07-10T10:21:35;4.30;;;1.50;;
20340;SDS011;10328;50.042;8.238;2022-07-10T10:24:02;4.80;;;1.50;;
20340;SDS011;10328;50.042;8.238;2022-07-10T10:26:29;3.07;;;1.10;;
20340;SDS011;10328;50.042;8.238;2022-07-10T10:28:56;4.77;;;1.13;;
20340;SDS011;10328;50.042;8.238;2022-07-10T10:31:26;3.93;;;1.30;;
20340;SDS011;10328;50.042;8.238;2022-07-10T10:33:54;2.70;;;1.13;;
20340;SDS011;10328;50.042;8.238;2022-07-10T10:36:42;3.80;;;1.00;;
20340;SDS011;10328;50.042;8.238;2022-07-10T10:41:46;6.07;;;1.23;;
20340;SDS011;10328;50.042;8.238;2022-07-10T10:44:20;3.60;;;1.30;;
20340;SDS011;10328;50.042;8.238;2022-07-10T10:49:23;4.60;;;1.30;;
20340;SDS011;10328;50.042;8.238;2022-07-10T10:54:31;3.17;;;1.27;;
20340;SDS011;10328;50.042;8.238;2022-07-10T10:57:18;3.83;;;1.10;;
20340;SDS011;10328;50.042;8.238;2022-07-10T10:59:51;3.22;;;1.33;;
20340;SDS011;10328;50.042;8.238;2022-07-10T11:02:27;4.53;;;1.20;;
20340;SDS011;10328;50.042;8.238;2022-07-10T11:13:03;3.15;;;1.10;;
20340;SDS011;10328;50.042;8.238;2022-07-10T11:15:32;4.75;;;1.00;;
20340;SDS011;10328;50.042;8.238;2022-07-10T11:20:39;2.60;;;1.27;;
20340;SDS011;10328;50.042;8.238;2022-07-10T11:25:53;2.15;;;1.02;;
20340;SDS011;10328;50.042;8.238;2022-07-10T11:28:32;1.33;;;1.00;;
20340;SDS011;10328;50.042;8.238;2022-07-10T11:31:10;2.70;;;1.10;;
20340;SDS011;10328;50.042;8.238;2022-07-10T11:33:40;1.30;;;0.90;;
20340;SDS011;10328;50.042;8.238;2022-07-10T11:36:16;1.80;;;1.10;;
20340;SDS011;10328;50.042;8.238;2022-07-10T11:38:44;3.05;;;1.00;;
20340;SDS011;10328;50.042;8.238;2022-07-10T11:41:15;3.00;;;1.00;;
20340;SDS011;10328;50.042;8.238;2022-07-10T11:43:46;3.72;;;1.50;;
20340;SDS011;10328;50.042;8.238;2022-07-10T11:46:17;2.65;;;1.02;;
20340;SDS011;10328;50.042;8.238;2022-07-10T11:48:49;3.15;;;1.17;;
20340;SDS011;10328;50.042;8.238;2022-07-10T11:51:28;2.55;;;1.05;;
20340;SDS011;10328;50.042;8.238;2022-07-10T11:53:59;2.25;;;1.10;;
20340;SDS011;10328;50.042;8.238;2022-07-10T11:56:28;4.20;;;1.10;;
20340;SDS011;10328;50.042;8.238;2022-07-10T11:59:00;2.92;;;1.10;;
20340;SDS011;10328;50.042;8.238;2022-07-10T12:01:35;2.67;;;1.40;;
20340;SDS011;10328;50.042;8.238;2022-07-10T12:04:07;1.45;;;1.10;;
20340;SDS011;10328;50.042;8.238;2022-07-10T12:06:36;3.95;;;1.30;;
20340;SDS011;10328;50.042;8.238;2022-07-10T12:09:05;2.13;;;1.15;;
20340;SDS011;10328;50.042;8.238;2022-07-10T12:11:34;1.42;;;1.10;;
20340;SDS011;10328;50.042;8.238;2022-07-10T12:14:14;6.28;;;1.10;;
20340;SDS011;10328;50.042;8.238;2022-07-10T12:19:14;1.27;;;1.00;;
20340;SDS011;10328;50.042;8.238;2022-07-10T12:21:43;14.82;;;7.45;;
20340;SDS011;10328;50.042;8.238;2022-07-10T12:24:12;8.88;;;6.75;;
20340;SDS011;10328;50.042;8.238;2022-07-10T12:26:42;3.38;;;1.45;;
20340;SDS011;10328;50.042;8.238;2022-07-10T12:31:51;1.05;;;0.73;;
20340;SDS011;10328;50.042;8.238;2022-07-10T12:34:19;3.30;;;0.80;;
20340;SDS011;10328;50.042;8.238;2022-07-10T12:39:17;2.80;;;0.90;;
20340;SDS011;10328;50.042;8.238;2022-07-10T12:41:57;3.33;;;0.75;;
20340;SDS011;10328;50.042;8.238;2022-07-10T12:44:41;3.10;;;0.90;;
20340;SDS011;10328;50.042;8.238;2022-07-10T12:47:13;1.00;;;0.70;;
20340;SDS011;10328;50.042;8.238;2022-07-10T12:49:48;1.90;;;0.77;;
20340;SDS011;10328;50.042;8.238;2022-07-10T12:52:32;2.25;;;0.80;;
20340;SDS011;10328;50.042;8.238;2022-07-10T12:57:49;3.00;;;0.90;;
20340;SDS011;10328;50.042;8.238;2022-07-10T13:00:24;2.45;;;0.80;;
20340;SDS011;10328;50.042;8.238;2022-07-10T13:05:33;2.08;;;1.02;;
20340;SDS011;10328;50.042;8.238;2022-07-10T13:10:48;2.63;;;0.80;;
20340;SDS011;10328;50.042;8.238;2022-07-10T13:13:18;2.85;;;1.02;;
20340;SDS011;10328;50.042;8.238;2022-07-10T13:15:45;2.17;;;0.90;;
20340;SDS011;10328;50.042;8.238;2022-07-10T13:18:16;2.83;;;0.95;;
20340;SDS011;10328;50.042;8.238;2022-07-10T13:20:44;2.35;;;0.75;;
20340;SDS011;10328;50.042;8.238;2022-07-10T13:23:12;1.23;;;0.60;;
20340;SDS011;10328;50.042;8.238;2022-07-10T13:25:39;2.47;;;0.82;;
20340;SDS011;10328;50.042;8.238;2022-07-10T13:28:06;1.20;;;0.80;;
20340;SDS011;10328;50.042;8.238;2022-07-10T13:30:33;1.35;;;0.88;;
20340;SDS011;10328;50.042;8.238;2022-07-10T13:33:01;2.25;;;1.05;;
20340;SDS011;10328;50.042;8.238;2022-07-10T13:35:28;2.30;;;1.10;;
20340;SDS011;10328;50.042;8.238;2022-07-10T13:37:56;3.42;;;1.08;;
20340;SDS011;10328;50.042;8.238;2022-07-10T13:40:27;3.35;;;1.13;;
20340;SDS011;10328;50.042;8.238;2022-07-10T13:42:54;4.50;;;1.30;;
20340;SDS011;10328;50.042;8.238;2022-07-10T13:45:22;4.47;;;1.02;;
20340;SDS011;10328;50.042;8.238;2022-07-10T13:47:51;2.90;;;1.13;;
20340;SDS011;10328;50.042;8.238;2022-07-10T13:50:21;3.47;;;1.05;;
20340;SDS011;10328;50.042;8.238;2022-07-10T13:52:48;3.15;;;1.08;;
20340;SDS011;10328;50.042;8.238;2022-07-10T13:55:15;2.15;;;0.85;;
20340;SDS011;10328;50.042;8.238;2022-07-10T13:57:42;1.70;;;0.93;;
20340;SDS011;10328;50.042;8.238;2022-07-10T14:00:09;1.65;;;0.90;;
20340;SDS011;10328;50.042;8.238;2022-07-10T14:02:37;1.70;;;1.17;;
20340;SDS011;10328;50.042;8.238;2022-07-10T14:05:04;1.20;;;1.10;;
20340;SDS011;10328;50.042;8.238;2022-07-10T14:07:31;1.83;;;0.98;;
20340;SDS011;10328;50.042;8.238;2022-07-10T14:09:59;2.10;;;1.10;;
20340;SDS011;10328;50.042;8.238;2022-07-10T14:12:27;2.17;;;1.00;;
20340;SDS011;10328;50.042;8.238;2022-07-10T14:14:54;1.73;;;1.15;;
20340;SDS011;10328;50.042;8.238;2022-07-10T14:17:20;2.22;;;1.00;;
20340;SDS011;10328;50.042;8.238;2022-07-10T14:19:47;1.48;;;1.00;;
20340;SDS011;10328;50.042;8.238;2022-07-10T14:22:14;5.38;;;1.20;;
20340;SDS011;10328;50.042;8.238;2022-07-10T14:24:41;4.43;;;1.10;;
20340;SDS011;10328;50.042;8.238;2022-07-10T14:27:08;1.30;;;1.00;;
20340;SDS011;10328;50.042;8.238;2022-07-10T14:29:35;1.90;;;0.88;;
20340;SDS011;10328;50.042;8.238;2022-07-10T14:32:01;2.25;;;0.80;;
20340;SDS011;10328;50.042;8.238;2022-07-10T14:34:28;2.55;;;0.80;;
20340;SDS011;10328;50.042;8.238;2022-07-10T14:36:55;1.00;;;0.70;;
20340;SDS011;10328;50.042;8.238;2022-07-10T14:39:26;2.45;;;0.80;;
20340;SDS011;10328;50.042;8.238;2022-07-10T14:41:53;0.93;;;0.80;;
20340;SDS011;10328;50.042;8.238;2022-07-10T14:44:19;1.27;;;1.10;;
20340;SDS011;10328;50.042;8.238;2022-07-10T14:46:47;1.85;;;0.90;;
20340;SDS011;10328;50.042;8.238;2022-07-10T14:49:14;1.40;;;1.10;;
20340;SDS011;10328;50.042;8.238;2022-07-10T14:51:40;2.40;;;1.75;;
20340;SDS011;10328;50.042;8.238;2022-07-10T14:54:08;2.33;;;1.30;;
20340;SDS011;10328;50.042;8.238;2022-07-10T14:56:36;0.98;;;0.88;;
20340;SDS011;10328;50.042;8.238;2022-07-10T14:59:03;1.15;;;0.70;;
20340;SDS011;10328;50.042;8.238;2022-07-10T15:01:39;1.55;;;0.88;;
20340;SDS011;10328;50.042;8.238;2022-07-10T15:04:07;0.90;;;0.85;;
20340;SDS011;10328;50.042;8.238;2022-07-10T15:06:33;1.40;;;1.20;;
20340;SDS011;10328;50.042;8.238;2022-07-10T15:09:00;3.50;;;0.80;;
20340;SDS011;10328;50.042;8.238;2022-07-10T15:11:26;2.75;;;0.80;;
20340;SDS011;10328;50.042;8.238;2022-07-10T15:13:53;2.33;;;1.10;;
20340;SDS011;10328;50.042;8.238;2022-07-10T15:16:25;2.22;;;0.95;;
20340;SDS011;10328;50.042;8.238;2022-07-10T15:18:53;1.20;;;1.10;;
20340;SDS011;10328;50.042;8.238;2022-07-10T15:21:20;1.50;;;0.93;;
20340;SDS011;10328;50.042;8.238;2022-07-10T15:23:48;1.10;;;1.00;;
20340;SDS011;10328;50.042;8.238;2022-07-10T15:26:15;2.17;;;1.30;;
20340;SDS011;10328;50.042;8.238;2022-07-10T15:28:43;1.98;;;1.27;;
20340;SDS011;10328;50.042;8.238;2022-07-10T15:31:10;1.50;;;1.40;;
20340;SDS011;10328;50.042;8.238;2022-07-10T15:33:37;1.73;;;1.30;;
20340;SDS011;10328;50.042;8.238;2022-07-10T15:36:10;2.67;;;1.50;;
20340;SDS011;10328;50.042;8.238;2022-07-10T15:38:37;4.15;;;1.55;;
20340;SDS011;10328;50.042;8.238;2022-07-10T15:41:04;3.40;;;1.60;;
20340;SDS011;10328;50.042;8.238;2022-07-10T15:43:30;3.88;;;1.90;;
20340;SDS011;10328;50.042;8.238;2022-07-10T15:45:57;2.17;;;1.60;;
20340;SDS011;10328;50.042;8.238;2022-07-10T15:48:25;2.65;;;1.98;;